Terminal Aerodrome Forecast
Issued by NWS Detroit/Pontiac, MI

Home | Current Version | Previous Version | Text Only | Print | Product List | Glossary On
Versions: 1 2 3 4 5 6 7 8 9 10 11 12 13 14 15 16
000
FTUS43 KDTX 272332
TAFFNT
TAF
KFNT 272332Z 2800/2824 03010KT P6SM SCT060
     FM280600 03005KT P6SM SCT250
     FM281500 01007KT P6SM SCT030
     FM282000 01010KT P6SM SKC=

USA.gov is the U.S. government's official web portal to all federal, state and local government web resources and services.